createdAt,value
2023-01-23T00:02:15.956Z,31.42
2023-01-23T00:04:43.116Z,31.02
2023-01-23T00:07:11.455Z,31.25
2023-01-23T00:12:19.345Z,30.70
2023-01-23T00:17:27.549Z,32.03
2023-01-23T00:22:36.867Z,32.10
2023-01-23T00:28:15.511Z,32.10
2023-01-23T00:30:42.573Z,33.08
2023-01-23T00:33:12.634Z,32.63
2023-01-23T00:35:39.700Z,34.10
2023-01-23T00:38:10.103Z,33.63
2023-01-23T00:43:21.316Z,29.40
2023-01-23T00:45:48.534Z,28.03
2023-01-23T00:48:16.086Z,29.27
2023-01-23T00:53:24.238Z,35.77
2023-01-23T00:55:59.155Z,36.50
2023-01-23T00:58:26.221Z,35.63
2023-01-23T01:01:05.225Z,36.20
2023-01-23T01:03:32.298Z,35.95
2023-01-23T01:06:01.253Z,35.70
2023-01-23T01:08:31.053Z,35.47
2023-01-23T01:10:58.357Z,34.72
2023-01-23T01:13:31.382Z,35.67
2023-01-23T01:16:17.067Z,35.63
2023-01-23T01:19:00.001Z,35.25
2023-01-23T01:21:30.497Z,32.33
2023-01-23T01:23:58.853Z,28.83
2023-01-23T01:26:38.554Z,27.48
2023-01-23T01:29:05.935Z,28.13
2023-01-23T01:31:39.171Z,27.98
2023-01-23T01:34:09.002Z,28.70
2023-01-23T01:39:26.238Z,29.57
2023-01-23T01:41:53.591Z,29.33
2023-01-23T01:44:25.003Z,30.50
2023-01-23T01:46:52.419Z,29.67
2023-01-23T01:49:36.147Z,29.50
2023-01-23T01:52:10.292Z,29.83
2023-01-23T01:54:44.597Z,29.65
2023-01-23T01:57:48.947Z,29.00
2023-01-23T02:00:36.937Z,29.13
2023-01-23T02:03:04.292Z,29.23
2023-01-23T02:05:46.142Z,28.55
2023-01-23T02:08:16.476Z,25.88
2023-01-23T02:10:44.376Z,25.13
2023-01-23T02:13:36.236Z,25.23
2023-01-23T02:16:15.352Z,24.65
2023-01-23T02:18:52.121Z,20.33
2023-01-23T02:21:25.174Z,23.67
2023-01-23T02:24:21.817Z,19.83
2023-01-23T02:26:49.596Z,23.88
2023-01-23T02:29:19.307Z,19.97
2023-01-23T02:31:51.916Z,23.80
2023-01-23T02:34:18.929Z,21.40
2023-01-23T05:29:31.805Z,23.17
2023-01-23T05:32:11.859Z,20.70
2023-01-23T05:34:38.981Z,19.77
2023-01-23T05:37:05.994Z,19.47
2023-01-23T05:39:33.427Z,21.53
2023-01-23T05:42:01.767Z,20.70
2023-01-23T05:44:28.865Z,22.23
2023-01-23T05:46:55.742Z,22.17
2023-01-23T05:49:22.720Z,21.63
2023-01-23T05:51:49.563Z,22.10
2023-01-23T05:54:16.427Z,22.70
2023-01-23T05:56:43.244Z,20.03
2023-01-23T05:59:10.659Z,18.67
2023-01-23T06:01:37.434Z,21.23
2023-01-23T06:04:04.425Z,20.87
2023-01-23T06:06:31.217Z,20.43
2023-01-23T06:09:00.087Z,20.53
2023-01-23T06:11:26.957Z,20.77
2023-01-23T06:13:53.837Z,25.23
2023-01-23T06:16:20.735Z,25.98
2023-01-23T06:18:47.610Z,25.67
2023-01-23T06:21:15.310Z,24.85
2023-01-23T06:23:42.559Z,24.10
2023-01-23T06:26:09.447Z,23.80
2023-01-23T06:28:36.429Z,24.20
2023-01-23T06:31:04.569Z,23.80
2023-01-23T06:33:31.630Z,23.90
2023-01-23T06:36:03.475Z,23.75
2023-01-23T06:38:30.991Z,24.25
2023-01-23T06:40:58.002Z,23.60
2023-01-23T06:43:25.389Z,23.25
2023-01-23T06:45:52.448Z,22.50
2023-01-23T06:48:19.378Z,23.25
2023-01-23T06:50:46.201Z,23.17
2023-01-23T06:53:14.967Z,23.10
2023-01-23T06:55:41.918Z,22.48
2023-01-23T06:58:09.215Z,23.08
2023-01-23T07:00:36.005Z,22.02
2023-01-23T07:03:06.035Z,21.55
2023-01-23T07:05:37.216Z,21.40
2023-01-23T07:08:05.089Z,22.30
2023-01-23T07:10:32.445Z,22.48
2023-01-23T07:12:59.254Z,19.03
2023-01-23T07:15:26.174Z,22.70
2023-01-23T07:17:53.550Z,22.85
2023-01-23T07:20:20.825Z,22.67
2023-01-23T07:22:48.113Z,23.33
2023-01-23T07:25:15.013Z,22.92
2023-01-23T07:27:41.824Z,22.85
2023-01-23T07:30:10.564Z,23.63
2023-01-23T07:32:37.695Z,23.38
2023-01-23T07:35:05.155Z,24.50
2023-01-23T07:37:31.995Z,23.95
2023-01-23T07:39:58.867Z,24.73
2023-01-23T07:42:25.701Z,24.53
2023-01-23T07:44:52.629Z,25.30
2023-01-23T07:47:19.541Z,25.08
2023-01-23T07:49:46.332Z,24.95
2023-01-23T07:52:13.164Z,25.50
2023-01-23T07:54:40.008Z,25.23
2023-01-23T07:57:07.183Z,24.75
2023-01-23T07:59:33.953Z,26.00
2023-01-23T08:02:00.793Z,26.58
2023-01-23T08:04:28.012Z,24.90
2023-01-23T08:06:54.875Z,26.33
2023-01-23T08:09:22.293Z,25.95
2023-01-23T08:11:52.650Z,25.55
2023-01-23T08:14:19.828Z,24.95
2023-01-23T08:16:51.321Z,25.15
2023-01-23T08:19:19.332Z,24.70
2023-01-23T08:21:47.130Z,25.03
2023-01-23T08:24:14.619Z,25.30
2023-01-23T08:26:42.588Z,25.30
2023-01-23T08:29:10.979Z,25.02
2023-01-23T08:31:38.901Z,25.03
2023-01-23T08:34:06.243Z,23.98
2023-01-23T08:36:33.160Z,24.53
2023-01-23T08:39:00.313Z,24.40
2023-01-23T08:41:27.214Z,25.38
2023-01-23T08:43:54.422Z,23.70
2023-01-23T08:46:21.335Z,23.42
2023-01-23T08:48:48.211Z,22.08
2023-01-23T08:51:15.247Z,21.98
2023-01-23T08:53:42.320Z,23.05
2023-01-23T08:56:16.811Z,21.83
2023-01-23T08:58:44.782Z,22.23
2023-01-23T09:01:17.057Z,22.15
2023-01-23T09:03:44.069Z,22.13
2023-01-23T09:06:12.545Z,22.80
2023-01-23T09:08:39.409Z,22.17
2023-01-23T09:11:08.723Z,22.95
2023-01-23T09:13:36.001Z,21.88
2023-01-23T09:16:04.000Z,22.55
2023-01-23T09:18:31.755Z,22.27
2023-01-23T09:20:58.627Z,21.85
2023-01-23T09:23:25.584Z,22.05
2023-01-23T09:25:52.471Z,21.30
2023-01-23T09:28:19.314Z,21.38
2023-01-23T09:30:46.112Z,21.67
2023-01-23T09:33:13.176Z,20.27
2023-01-23T09:35:40.038Z,20.80
2023-01-23T09:38:07.723Z,20.73
2023-01-23T09:40:46.266Z,21.58
2023-01-23T09:43:18.424Z,21.08
2023-01-23T09:46:05.504Z,21.77
2023-01-23T09:48:40.918Z,20.27
2023-01-23T09:51:32.513Z,19.63
2023-01-23T09:54:05.531Z,19.47
2023-01-23T09:56:38.298Z,21.02
2023-01-23T09:59:08.188Z,20.25
2023-01-23T10:01:35.058Z,19.70
2023-01-23T10:04:02.859Z,19.95
2023-01-23T10:06:48.876Z,19.40
2023-01-23T10:09:51.094Z,19.20
2023-01-23T10:12:33.141Z,18.88
2023-01-23T10:15:24.179Z,19.48
2023-01-23T10:18:21.470Z,19.60
2023-01-23T10:20:51.439Z,18.90
2023-01-23T10:23:21.358Z,19.48
2023-01-23T10:25:48.685Z,19.05
2023-01-23T10:28:40.277Z,19.58
2023-01-23T10:31:38.558Z,19.45
2023-01-23T10:34:11.436Z,18.50
2023-01-23T10:36:55.085Z,20.88
2023-01-23T10:39:29.555Z,19.77
2023-01-23T10:42:02.123Z,19.20
2023-01-23T10:44:29.702Z,21.15
2023-01-23T10:47:02.050Z,19.73
2023-01-23T10:49:29.493Z,19.38
2023-01-23T10:51:56.613Z,17.93
2023-01-23T10:54:33.859Z,18.88
2023-01-23T10:57:02.321Z,18.40
2023-01-23T10:59:39.675Z,18.65
2023-01-23T11:02:16.240Z,18.42
2023-01-23T11:04:46.834Z,17.58
2023-01-23T11:07:17.764Z,16.90
2023-01-23T11:09:48.795Z,16.95
2023-01-23T11:12:19.086Z,19.35
2023-01-23T11:14:46.392Z,18.70
2023-01-23T11:17:33.513Z,19.25
2023-01-23T11:20:29.604Z,19.30
2023-01-23T11:23:05.493Z,21.05
2023-01-23T11:25:39.542Z,16.33
2023-01-23T11:28:36.792Z,17.23
2023-01-23T11:31:15.745Z,18.60
2023-01-23T11:33:59.408Z,18.92
2023-01-23T11:36:54.777Z,15.17
2023-01-23T11:39:39.723Z,16.23
2023-01-23T11:42:12.726Z,16.60
2023-01-23T11:55:35.728Z,15.37
2023-01-23T11:58:39.648Z,14.80
2023-01-23T12:01:30.619Z,15.80
2023-01-23T12:03:57.515Z,16.20
2023-01-23T12:06:32.653Z,16.83
2023-01-23T12:09:09.610Z,17.87
2023-01-23T12:11:50.470Z,17.60
2023-01-23T12:14:41.975Z,18.23
2023-01-23T12:17:27.069Z,18.20
2023-01-23T12:20:05.632Z,17.77
2023-01-23T12:23:17.577Z,18.77
2023-01-23T12:25:54.535Z,18.83
2023-01-23T12:28:27.090Z,19.40
2023-01-23T12:31:31.530Z,18.40
2023-01-23T12:34:19.416Z,18.53
2023-01-23T12:37:30.869Z,18.80
2023-01-23T12:40:22.757Z,19.37
2023-01-23T12:42:59.646Z,18.87
2023-01-23T12:45:29.526Z,19.77
2023-01-23T12:48:22.019Z,19.83
2023-01-23T12:50:56.494Z,18.63
2023-01-23T12:53:23.821Z,18.60
2023-01-23T12:56:11.124Z,19.10
2023-01-23T12:58:42.629Z,19.03
2023-01-23T13:01:22.674Z,19.07
2023-01-23T13:04:17.632Z,20.10
2023-01-23T13:07:02.041Z,17.30
2023-01-23T13:10:06.243Z,18.17
2023-01-23T13:12:33.909Z,18.00
2023-01-23T13:15:38.787Z,18.20
2023-01-23T13:18:08.832Z,17.53
2023-01-23T13:20:56.759Z,19.07
2023-01-23T13:23:31.214Z,17.83
2023-01-23T13:26:16.166Z,19.77
2023-01-23T13:29:03.910Z,19.07
2023-01-23T13:31:41.682Z,23.92
2023-01-23T16:05:37.339Z,29.23
2023-01-23T16:08:06.432Z,27.47
2023-01-23T16:10:38.703Z,26.27
2023-01-23T16:13:07.704Z,24.17
2023-01-23T16:15:35.640Z,25.50
2023-01-23T16:18:06.439Z,25.53
2023-01-23T16:20:39.965Z,26.10
2023-01-23T16:23:19.843Z,24.80
2023-01-23T16:25:47.443Z,23.87
2023-01-23T16:28:24.012Z,24.07
2023-01-23T16:30:52.063Z,24.87
2023-01-23T16:33:20.196Z,24.63
2023-01-23T16:35:48.712Z,23.37
2023-01-23T16:38:27.278Z,24.87
2023-01-23T16:40:55.527Z,26.03
2023-01-23T16:43:22.935Z,26.50
2023-01-23T16:45:54.263Z,27.93
2023-01-23T16:48:27.088Z,26.33
2023-01-23T16:50:58.846Z,25.80
2023-01-23T16:53:35.373Z,25.67
2023-01-23T16:56:03.449Z,25.13
2023-01-23T16:58:37.114Z,23.57
2023-01-23T17:01:11.798Z,31.75
2023-01-23T17:03:43.172Z,33.08
2023-01-23T17:06:17.062Z,31.90
2023-01-23T17:08:44.102Z,32.83
2023-01-23T17:11:18.620Z,30.88
2023-01-23T17:13:45.600Z,32.30
2023-01-23T17:16:26.148Z,31.63
2023-01-23T17:18:55.634Z,33.33
2023-01-23T17:21:25.369Z,32.25
2023-01-23T17:23:52.676Z,32.72
2023-01-23T17:26:20.974Z,32.05
2023-01-23T17:28:48.172Z,31.90
2023-01-23T17:31:24.423Z,32.15
2023-01-23T17:33:55.828Z,33.67
2023-01-23T17:36:22.781Z,33.22
2023-01-23T17:38:50.202Z,28.70
2023-01-23T17:41:17.782Z,27.47
2023-01-23T17:43:44.894Z,26.43
2023-01-23T17:46:21.607Z,31.98
2023-01-23T17:48:48.509Z,34.70
2023-01-23T17:51:18.502Z,35.25
2023-01-23T17:53:45.887Z,33.08
2023-01-23T17:56:12.929Z,32.15
2023-01-23T17:58:39.948Z,31.38
2023-01-23T18:01:22.101Z,31.35
2023-01-23T18:03:50.874Z,31.65
2023-01-23T18:06:19.294Z,31.52
2023-01-23T18:08:46.258Z,31.17
2023-01-23T18:11:24.290Z,33.13
2023-01-23T18:14:16.171Z,33.33
2023-01-23T18:16:45.363Z,32.90
2023-01-23T18:19:21.358Z,32.58
2023-01-23T18:21:51.550Z,35.42
2023-01-23T18:24:30.797Z,33.38
2023-01-23T18:27:15.465Z,33.93
2023-01-23T18:30:17.187Z,33.47
2023-01-23T18:33:02.126Z,35.95
2023-01-23T18:35:40.695Z,35.35
2023-01-23T18:38:40.663Z,34.45
2023-01-23T18:41:10.312Z,35.17
2023-01-23T18:43:45.664Z,35.20
2023-01-23T18:46:17.843Z,36.17
2023-01-23T18:48:46.800Z,35.72
2023-01-23T18:51:38.625Z,34.70
2023-01-23T18:54:18.658Z,36.60
2023-01-23T18:56:48.571Z,35.17
2023-01-23T18:59:41.992Z,33.30
2023-01-23T19:02:26.475Z,34.17
2023-01-23T19:05:28.106Z,36.20
2023-01-23T19:07:55.669Z,36.13
2023-01-23T19:10:24.925Z,35.28
2023-01-23T19:13:18.859Z,35.60
2023-01-23T19:15:51.741Z,35.03
2023-01-23T19:18:45.206Z,35.83
2023-01-23T19:21:20.765Z,34.83
2023-01-23T19:24:00.850Z,34.58
2023-01-23T19:26:30.376Z,33.60
2023-01-23T19:28:59.767Z,33.92
2023-01-23T19:31:29.632Z,33.55
2023-01-23T19:33:57.455Z,34.58
2023-01-23T19:36:25.692Z,34.13
2023-01-23T19:38:53.260Z,34.80
2023-01-23T19:41:23.472Z,33.33
2023-01-23T19:43:56.697Z,34.35
2023-01-23T19:46:30.164Z,32.83
2023-01-23T19:48:57.839Z,34.08
2023-01-23T19:51:26.797Z,33.70
2023-01-23T19:53:54.917Z,35.80
2023-01-23T19:56:22.071Z,34.35
2023-01-23T19:58:49.509Z,34.58
2023-01-23T20:01:19.225Z,33.60
2023-01-23T20:03:46.426Z,32.40
2023-01-23T20:06:13.327Z,33.42
2023-01-23T20:08:40.162Z,33.63
2023-01-23T20:11:07.174Z,33.95
2023-01-23T20:13:33.975Z,34.83
2023-01-23T20:16:08.102Z,35.45
2023-01-23T20:18:35.075Z,33.83
2023-01-23T20:21:02.263Z,34.50
2023-01-23T20:23:29.302Z,34.70
2023-01-23T20:26:00.837Z,35.40
2023-01-23T20:28:29.226Z,36.72
2023-01-23T20:30:56.845Z,36.03
2023-01-23T20:33:24.807Z,35.80
2023-01-23T20:35:53.511Z,36.33
2023-01-23T20:38:23.657Z,35.47
2023-01-23T20:40:50.635Z,36.60
2023-01-23T20:43:17.986Z,35.70
2023-01-23T20:45:46.981Z,33.78
2023-01-23T20:48:13.998Z,36.38
2023-01-23T20:50:41.446Z,35.17
2023-01-23T20:53:31.083Z,34.10
2023-01-23T20:56:04.420Z,35.70
2023-01-23T20:58:50.983Z,36.58
2023-01-23T21:01:19.874Z,35.10
2023-01-23T21:03:48.240Z,34.13
2023-01-23T21:06:15.979Z,34.17
2023-01-23T21:08:43.742Z,34.20
2023-01-23T21:11:16.378Z,34.03
2023-01-23T21:13:44.168Z,34.10
2023-01-23T21:16:15.860Z,34.40
2023-01-23T21:18:46.311Z,33.85
2023-01-23T21:21:18.413Z,33.92
2023-01-23T21:23:49.544Z,33.80
2023-01-23T21:26:19.757Z,33.22
2023-01-23T21:28:48.188Z,34.15
2023-01-23T21:31:20.692Z,33.20
2023-01-23T21:33:48.120Z,36.25
2023-01-23T21:36:17.582Z,36.22
2023-01-23T21:38:45.203Z,33.53
2023-01-23T21:41:12.943Z,32.70
2023-01-23T21:43:40.139Z,33.03
2023-01-23T21:46:07.268Z,32.42
2023-01-23T21:48:34.565Z,34.25
2023-01-23T21:51:08.568Z,32.33
2023-01-23T21:53:39.986Z,33.03
2023-01-23T21:56:08.001Z,33.65
2023-01-23T21:58:35.078Z,32.80
2023-01-23T22:01:25.723Z,34.53
2023-01-23T22:03:53.099Z,33.55
2023-01-23T22:06:19.973Z,36.42
2023-01-23T22:08:46.819Z,35.83
2023-01-23T22:11:13.857Z,36.10
2023-01-23T22:13:41.085Z,34.40
2023-01-23T22:16:08.205Z,34.33
2023-01-23T22:18:35.090Z,32.80
2023-01-23T22:21:04.344Z,30.50
2023-01-23T22:23:31.797Z,31.38
2023-01-23T22:26:07.723Z,30.77
2023-01-23T22:28:35.091Z,31.65
2023-01-23T22:31:14.345Z,31.50
2023-01-23T22:33:44.443Z,30.88
2023-01-23T22:36:17.686Z,32.87
2023-01-23T22:38:45.059Z,32.05
2023-01-23T22:41:14.802Z,32.72
2023-01-23T22:43:42.066Z,31.58
2023-01-23T22:46:20.703Z,31.38
2023-01-23T22:48:47.544Z,31.98
2023-01-23T22:51:24.171Z,32.42
2023-01-23T22:53:52.018Z,32.63
2023-01-23T22:56:18.922Z,32.65
2023-01-23T22:58:47.389Z,31.83
2023-01-23T23:01:14.567Z,32.03
2023-01-23T23:03:41.530Z,31.88
2023-01-23T23:06:10.921Z,32.22
2023-01-23T23:08:38.360Z,31.90
2023-01-23T23:11:14.825Z,32.65
2023-01-23T23:13:41.770Z,31.00
2023-01-23T23:16:20.849Z,32.20
2023-01-23T23:18:49.516Z,31.70
2023-01-23T23:21:19.707Z,32.22
2023-01-23T23:23:47.334Z,32.93
2023-01-23T23:26:15.193Z,32.17
2023-01-23T23:28:42.255Z,31.70
2023-01-23T23:31:09.892Z,31.27
2023-01-23T23:33:37.533Z,31.35
2023-01-23T23:36:04.896Z,31.98
2023-01-23T23:38:31.799Z,32.58
2023-01-23T23:41:00.902Z,32.63
2023-01-23T23:43:28.605Z,32.83
2023-01-23T23:48:30.891Z,31.77
2023-01-23T23:51:00.568Z,31.88
2023-01-23T23:53:28.108Z,30.07
2023-01-23T23:55:55.682Z,30.73
2023-01-23T23:58:23.972Z,30.80
